createdAt,value
2022-11-20T00:00:51.217Z,6.20
2022-11-20T00:03:56.482Z,6.40
2022-11-20T00:06:58.016Z,6.40
2022-11-20T00:09:59.534Z,5.10
2022-11-20T00:13:00.916Z,5.40
2022-11-20T00:16:05.285Z,5.10
2022-11-20T00:19:06.857Z,5.10
2022-11-20T00:22:08.265Z,5.00
2022-11-20T00:25:09.808Z,6.10
2022-11-20T00:28:11.238Z,5.70
2022-11-20T00:31:15.191Z,4.90
2022-11-20T00:34:16.697Z,5.40
2022-11-20T00:37:18.225Z,5.40
2022-11-20T00:40:19.846Z,5.30
2022-11-20T00:43:23.445Z,7.30
2022-11-20T00:46:27.439Z,5.90
2022-11-20T00:49:28.856Z,5.40
2022-11-20T00:52:30.236Z,5.60
2022-11-20T00:55:31.647Z,7.10
2022-11-20T00:58:35.685Z,5.90
2022-11-20T01:01:37.645Z,6.20
2022-11-20T01:04:40.751Z,5.50
2022-11-20T01:07:42.712Z,5.90
2022-11-20T01:10:44.172Z,6.10
2022-11-20T01:13:47.210Z,6.00
2022-11-20T01:16:51.632Z,5.70
2022-11-20T01:19:53.124Z,6.30
2022-11-20T01:22:54.628Z,6.90
2022-11-20T01:25:56.855Z,6.20
2022-11-20T01:28:59.750Z,7.10
2022-11-20T01:32:02.523Z,6.50
2022-11-20T01:35:05.539Z,9.60
2022-11-20T01:38:06.982Z,6.20
2022-11-20T01:41:09.681Z,5.90
2022-11-20T01:44:15.425Z,7.00
2022-11-20T01:47:35.849Z,6.90
2022-11-20T01:50:37.327Z,6.10
2022-11-20T01:53:39.377Z,6.30
2022-11-20T01:56:44.886Z,6.30
2022-11-20T02:00:13.732Z,5.60
2022-11-20T02:03:19.587Z,5.00
2022-11-20T02:06:28.511Z,6.20
2022-11-20T02:09:29.967Z,6.80
2022-11-20T02:12:50.470Z,5.60
2022-11-20T02:15:52.299Z,5.90
2022-11-20T02:18:55.701Z,6.20
2022-11-20T02:22:08.602Z,6.10
2022-11-20T02:25:10.835Z,5.90
2022-11-20T02:28:12.271Z,6.60
2022-11-20T02:31:13.729Z,5.80
2022-11-20T02:34:15.231Z,6.70
2022-11-20T02:37:18.216Z,6.80
2022-11-20T02:40:19.827Z,7.40
2022-11-20T02:43:21.279Z,8.10
2022-11-20T02:46:23.261Z,8.30
2022-11-20T02:49:25.657Z,8.00
2022-11-20T02:52:27.308Z,7.50
2022-11-20T02:55:28.691Z,8.10
2022-11-20T02:58:30.150Z,8.60
2022-11-20T03:01:31.581Z,8.70
2022-11-20T03:04:33.096Z,10.40
2022-11-20T03:07:34.591Z,8.30
2022-11-20T03:10:36.028Z,7.50
2022-11-20T03:13:37.565Z,9.10
2022-11-20T03:16:39.013Z,9.00
2022-11-20T03:19:40.684Z,9.50
2022-11-20T03:22:42.097Z,8.30
2022-11-20T03:25:43.522Z,7.80
2022-11-20T03:28:50.753Z,7.50
2022-11-20T03:31:52.226Z,7.80
2022-11-20T03:34:53.664Z,9.20
2022-11-20T03:37:56.293Z,6.80
2022-11-20T03:41:09.333Z,7.40
2022-11-20T03:44:12.356Z,7.30
2022-11-20T03:47:13.821Z,7.00
2022-11-20T03:50:15.468Z,7.90
2022-11-20T03:53:17.573Z,7.40
2022-11-20T03:56:23.364Z,7.60
2022-11-20T03:59:24.817Z,8.20
2022-11-20T04:02:26.258Z,8.90
2022-11-20T04:05:28.093Z,6.70
2022-11-20T04:08:31.062Z,7.20
2022-11-20T04:11:35.361Z,8.20
2022-11-20T04:14:37.240Z,9.00
2022-11-20T04:17:38.661Z,9.70
2022-11-20T04:20:41.511Z,11.90
2022-11-20T04:23:43.670Z,8.50
2022-11-20T04:26:45.115Z,12.40
2022-11-20T04:29:46.658Z,8.10
2022-11-20T04:32:48.207Z,10.80
2022-11-20T04:35:49.677Z,11.40
2022-11-20T04:38:57.409Z,10.40
2022-11-20T04:42:18.286Z,13.60
2022-11-20T04:45:19.904Z,15.70
2022-11-20T04:48:21.810Z,13.60
2022-11-20T04:51:23.733Z,10.80
2022-11-20T04:54:25.360Z,9.40
2022-11-20T04:57:26.833Z,15.30
2022-11-20T05:00:28.240Z,12.80
2022-11-20T05:03:30.701Z,12.30
2022-11-20T05:06:32.318Z,14.40
2022-11-20T05:09:33.937Z,13.70
2022-11-20T05:12:35.388Z,15.00
2022-11-20T05:15:36.858Z,15.50
2022-11-20T05:18:39.469Z,14.60
2022-11-20T05:21:41.075Z,16.20
2022-11-20T05:24:43.798Z,11.80
2022-11-20T05:27:48.762Z,17.10
2022-11-20T05:30:51.159Z,15.70
2022-11-20T05:33:52.766Z,15.00
2022-11-20T05:36:54.298Z,15.60
2022-11-20T05:39:55.722Z,17.50
2022-11-20T05:42:57.155Z,12.10
2022-11-20T05:45:59.437Z,16.20
2022-11-20T05:49:01.283Z,15.50
2022-11-20T05:52:03.078Z,16.00
2022-11-20T05:55:04.896Z,21.30
2022-11-20T05:58:06.408Z,21.30
2022-11-20T06:01:11.791Z,15.80
2022-11-20T06:04:13.216Z,17.50
2022-11-20T06:07:14.657Z,19.00
2022-11-20T06:10:16.226Z,16.60
2022-11-20T06:13:17.699Z,17.80
2022-11-20T06:16:44.383Z,20.00
2022-11-20T06:19:45.908Z,19.00
2022-11-20T06:22:48.130Z,20.90
2022-11-20T06:25:49.611Z,19.20
2022-11-20T06:29:18.460Z,16.50
2022-11-20T06:32:19.962Z,17.90
2022-11-20T06:35:21.518Z,20.30
2022-11-20T06:38:22.994Z,14.70
2022-11-20T06:41:25.680Z,17.50
2022-11-20T06:44:27.156Z,17.60
2022-11-20T06:47:28.686Z,13.70
2022-11-20T06:50:30.464Z,17.90
2022-11-20T06:53:32.234Z,18.70
2022-11-20T06:56:35.286Z,17.70
2022-11-20T06:59:36.707Z,16.20
2022-11-20T07:02:38.116Z,16.70
2022-11-20T07:05:40.449Z,20.00
2022-11-20T07:08:41.887Z,16.60
2022-11-20T07:11:43.491Z,18.60
2022-11-20T07:14:50.906Z,16.70
2022-11-20T07:17:52.764Z,18.40
2022-11-20T07:20:54.198Z,16.10
2022-11-20T07:23:55.650Z,14.10
2022-11-20T07:26:57.188Z,19.00
2022-11-20T07:29:58.608Z,22.00
2022-11-20T07:33:00.366Z,23.80
2022-11-20T07:36:02.482Z,20.40
2022-11-20T07:39:04.032Z,17.00
2022-11-20T07:42:06.826Z,15.90
2022-11-20T07:45:08.648Z,14.50
2022-11-20T07:48:10.199Z,19.50
2022-11-20T07:51:11.604Z,17.80
2022-11-20T07:54:13.916Z,18.60
2022-11-20T07:57:15.855Z,19.50
2022-11-20T08:00:17.420Z,17.80
2022-11-20T08:03:24.356Z,19.20
2022-11-20T08:06:26.518Z,11.90
2022-11-20T08:09:29.248Z,16.00
2022-11-20T08:12:49.362Z,21.00
2022-11-20T08:15:53.605Z,17.40
2022-11-20T08:18:55.473Z,16.60
2022-11-20T08:21:56.894Z,17.40
2022-11-20T08:24:58.383Z,17.30
2022-11-20T08:28:07.902Z,12.10
2022-11-20T08:31:13.266Z,17.30
2022-11-20T08:34:18.772Z,16.50
2022-11-20T08:37:20.777Z,16.30
2022-11-20T08:40:22.231Z,19.00
2022-11-20T08:43:23.672Z,15.70
2022-11-20T08:46:27.229Z,16.10
2022-11-20T08:49:28.782Z,15.40
2022-11-20T08:52:30.189Z,18.90
2022-11-20T08:55:31.964Z,20.50
2022-11-20T08:58:49.112Z,19.70
2022-11-20T09:01:55.027Z,19.70
2022-11-20T09:04:57.061Z,16.60
2022-11-20T09:07:59.332Z,18.60
2022-11-20T09:11:00.870Z,17.00
2022-11-20T09:14:03.155Z,15.10
2022-11-20T09:17:04.653Z,16.10
2022-11-20T09:20:06.423Z,18.10
2022-11-20T09:23:08.153Z,17.00
2022-11-20T09:26:12.057Z,17.50
2022-11-20T09:29:38.679Z,11.40
2022-11-20T09:32:40.500Z,19.10
2022-11-20T09:35:46.030Z,19.50
2022-11-20T09:38:48.957Z,22.30
2022-11-20T09:42:04.151Z,21.50
2022-11-20T09:45:17.124Z,17.00
2022-11-20T09:48:23.114Z,17.10
2022-11-20T09:51:57.425Z,14.90
2022-11-20T09:55:02.690Z,15.10
2022-11-20T09:58:08.061Z,17.20
2022-11-20T10:01:14.584Z,18.40
2022-11-20T10:04:21.404Z,13.90
2022-11-20T10:07:43.184Z,16.90
2022-11-20T10:10:52.459Z,17.30
2022-11-20T10:14:23.924Z,19.60
2022-11-20T10:17:48.780Z,16.30
2022-11-20T10:21:24.222Z,15.80
2022-11-20T10:24:35.926Z,16.40
2022-11-20T10:27:59.299Z,20.90
2022-11-20T10:31:12.063Z,17.40
2022-11-20T10:34:27.375Z,18.50
2022-11-20T10:37:32.942Z,17.70
2022-11-20T10:40:34.795Z,15.40
2022-11-20T10:43:38.615Z,16.00
2022-11-20T10:46:45.423Z,15.20
2022-11-20T10:49:55.777Z,14.90
2022-11-20T10:53:09.495Z,14.60
2022-11-20T10:56:31.189Z,12.80
2022-11-20T10:59:42.147Z,13.00
2022-11-20T11:02:46.611Z,14.40
2022-11-20T11:06:21.504Z,15.80
2022-11-20T11:09:37.787Z,13.70
2022-11-20T11:12:46.097Z,14.90
2022-11-20T11:15:47.529Z,17.90
2022-11-20T11:18:49.059Z,13.00
2022-11-20T11:21:57.754Z,13.00
2022-11-20T11:24:59.796Z,12.90
2022-11-20T11:28:20.096Z,11.00
2022-11-20T11:31:26.964Z,11.30
2022-11-20T11:34:28.462Z,11.20
2022-11-20T11:37:36.320Z,10.80
2022-11-20T11:40:40.233Z,11.10
2022-11-20T11:44:11.533Z,10.20
2022-11-20T11:47:26.026Z,11.90
2022-11-20T11:50:29.547Z,12.20
2022-11-20T11:53:31.143Z,13.20
2022-11-20T11:56:33.591Z,13.10
2022-11-20T11:59:50.816Z,13.20
2022-11-20T12:03:16.321Z,16.00
2022-11-20T12:06:17.961Z,14.70
2022-11-20T12:09:25.076Z,13.60
2022-11-20T12:12:37.210Z,13.10
2022-11-20T12:15:44.868Z,14.70
2022-11-20T12:18:50.513Z,17.50
2022-11-20T12:22:13.990Z,19.50
2022-11-20T12:25:36.620Z,19.40
2022-11-20T12:28:45.140Z,19.70
2022-11-20T12:32:10.717Z,18.10
2022-11-20T12:35:21.328Z,17.20
2022-11-20T12:38:41.142Z,15.60
2022-11-20T12:42:21.484Z,15.00
2022-11-20T12:45:35.563Z,14.70
2022-11-20T12:49:08.296Z,18.70
2022-11-20T12:52:39.746Z,16.00
2022-11-20T12:55:53.578Z,17.20
2022-11-20T12:59:16.699Z,19.30
2022-11-20T13:02:55.337Z,12.50
2022-11-20T13:06:14.278Z,13.60
2022-11-20T13:09:19.682Z,16.40
2022-11-20T13:12:39.638Z,16.00
2022-11-20T13:16:05.418Z,17.10
2022-11-20T13:19:12.823Z,16.00
2022-11-20T13:22:27.136Z,16.50
2022-11-20T13:25:30.988Z,16.40
2022-11-20T13:28:32.767Z,17.60
2022-11-20T13:31:45.931Z,22.30
2022-11-20T13:34:55.246Z,19.00
2022-11-20T13:38:15.332Z,17.60
2022-11-20T13:41:35.951Z,13.90
2022-11-20T13:44:46.985Z,15.40
2022-11-20T13:47:50.256Z,15.60
2022-11-20T13:51:06.436Z,13.80
2022-11-20T13:54:44.288Z,14.80
2022-11-20T13:58:04.671Z,14.50
2022-11-20T14:01:20.646Z,13.20
2022-11-20T14:04:30.672Z,13.60
2022-11-20T14:07:52.543Z,12.40
2022-11-20T14:11:13.072Z,12.40
2022-11-20T14:14:36.268Z,11.60
2022-11-20T14:17:38.634Z,10.70
2022-11-20T14:20:41.597Z,12.70
2022-11-20T14:23:48.409Z,11.50
2022-11-20T14:26:51.331Z,12.50
2022-11-20T14:29:53.255Z,13.60
2022-11-20T14:32:58.320Z,10.70
2022-11-20T14:35:59.936Z,10.60
2022-11-20T14:39:01.405Z,11.70
2022-11-20T14:42:17.487Z,12.20
2022-11-20T14:45:20.090Z,12.40
2022-11-20T14:48:28.251Z,12.70
2022-11-20T14:51:38.846Z,11.50
2022-11-20T14:55:08.448Z,11.10
2022-11-20T14:58:25.235Z,14.00
2022-11-20T15:01:29.000Z,13.10
2022-11-20T15:04:30.619Z,11.90
2022-11-20T15:07:35.935Z,12.90
2022-11-20T15:10:38.642Z,9.90
2022-11-20T15:13:40.885Z,11.00
2022-11-20T15:16:42.330Z,10.80
2022-11-20T15:19:43.891Z,10.70
2022-11-20T15:22:45.308Z,11.80
2022-11-20T15:25:48.907Z,13.90
2022-11-20T15:28:50.603Z,11.30
2022-11-20T15:31:53.220Z,10.60
2022-11-20T15:34:54.679Z,12.20
2022-11-20T15:37:56.087Z,18.30
2022-11-20T15:40:57.927Z,11.70
2022-11-20T15:43:59.356Z,9.90
2022-11-20T15:47:00.758Z,11.00
2022-11-20T15:50:02.872Z,13.10
2022-11-20T15:53:04.896Z,8.70
2022-11-20T15:56:10.598Z,8.50
2022-11-20T15:59:12.604Z,8.20
2022-11-20T16:02:19.350Z,11.00
2022-11-20T16:05:23.975Z,11.10
2022-11-20T16:08:25.788Z,9.80
2022-11-20T16:11:27.390Z,8.50
2022-11-20T16:14:47.750Z,10.50
2022-11-20T16:17:49.239Z,10.50
2022-11-20T16:20:55.004Z,10.90
2022-11-20T16:23:58.453Z,9.90
2022-11-20T16:27:00.161Z,10.00
2022-11-20T16:30:01.602Z,8.80
2022-11-20T16:33:04.301Z,7.80
2022-11-20T16:36:15.584Z,7.30
2022-11-20T16:39:23.066Z,9.90
2022-11-20T16:42:25.197Z,8.20
2022-11-20T16:45:31.340Z,13.60
2022-11-20T16:48:35.237Z,10.40
2022-11-20T16:51:40.167Z,9.50
2022-11-20T16:54:41.812Z,10.70
2022-11-20T16:57:43.262Z,11.70
2022-11-20T17:00:51.221Z,12.40
2022-11-20T17:03:56.636Z,15.00
2022-11-20T17:06:58.250Z,10.40
2022-11-20T17:10:00.641Z,14.70
2022-11-20T17:13:02.639Z,11.20
2022-11-20T17:16:07.032Z,13.40
2022-11-20T17:19:08.703Z,10.40
2022-11-20T17:22:10.133Z,14.20
2022-11-20T17:25:11.770Z,12.00
2022-11-20T17:28:13.259Z,10.60
2022-11-20T17:31:16.876Z,13.10
2022-11-20T17:34:18.362Z,12.80
2022-11-20T17:37:19.871Z,15.40
2022-11-20T17:40:25.999Z,13.70
2022-11-20T17:43:34.297Z,13.60
2022-11-20T17:46:37.698Z,13.00
2022-11-20T17:49:39.226Z,15.10
2022-11-20T17:52:40.743Z,13.60
2022-11-20T17:56:00.972Z,10.00
2022-11-20T17:59:08.046Z,12.40
2022-11-20T18:02:10.654Z,10.70
2022-11-20T18:05:12.269Z,13.90
2022-11-20T18:08:13.977Z,11.50
2022-11-20T18:11:27.033Z,12.80
2022-11-20T18:14:35.826Z,11.30
2022-11-20T18:17:37.403Z,11.10
2022-11-20T18:20:40.176Z,13.40
2022-11-20T18:23:41.902Z,12.10
2022-11-20T18:26:44.663Z,14.50
2022-11-20T18:29:51.333Z,12.70
2022-11-20T18:32:52.970Z,18.00
2022-11-20T18:35:57.216Z,14.80
2022-11-20T18:39:01.132Z,12.80
2022-11-20T18:42:21.542Z,12.40
2022-11-20T18:45:22.992Z,15.90
2022-11-20T18:48:27.562Z,16.30
2022-11-20T18:51:29.208Z,16.80
2022-11-20T18:54:37.090Z,11.00
2022-11-20T18:57:38.519Z,11.40
2022-11-20T19:00:39.971Z,14.30
2022-11-20T19:03:42.832Z,13.20
2022-11-20T19:06:48.840Z,12.30
2022-11-20T19:09:52.471Z,12.20
2022-11-20T19:12:58.687Z,11.50
2022-11-20T19:16:09.696Z,14.60
2022-11-20T19:19:11.561Z,16.20
2022-11-20T19:22:13.122Z,21.20
2022-11-20T19:25:14.609Z,16.40
2022-11-20T19:28:16.258Z,13.80
2022-11-20T19:31:24.596Z,12.20
2022-11-20T19:34:26.690Z,16.10
2022-11-20T19:37:28.203Z,13.30
2022-11-20T19:40:30.372Z,12.20
2022-11-20T19:43:33.827Z,14.30
2022-11-20T19:46:37.572Z,15.30
2022-11-20T19:49:41.221Z,16.90
2022-11-20T19:52:42.776Z,16.60
2022-11-20T19:55:57.796Z,12.80
2022-11-20T19:58:59.732Z,16.70
2022-11-20T20:02:04.339Z,14.00
2022-11-20T20:05:10.015Z,12.60
2022-11-20T20:08:16.472Z,14.10
2022-11-20T20:11:22.547Z,14.50
2022-11-20T20:14:24.280Z,16.20
2022-11-20T20:17:25.751Z,12.10
2022-11-20T20:20:28.522Z,16.20
2022-11-20T20:23:30.015Z,15.20
2022-11-20T20:26:37.442Z,13.70
2022-11-20T20:29:39.007Z,13.00
2022-11-20T20:32:40.520Z,14.30
2022-11-20T20:35:42.504Z,15.70
2022-11-20T20:38:45.845Z,15.20
2022-11-20T20:41:47.406Z,17.30
2022-11-20T20:45:07.273Z,16.20
2022-11-20T20:48:08.789Z,17.00
2022-11-20T20:51:18.047Z,13.60
2022-11-20T20:54:19.737Z,13.30
2022-11-20T20:57:22.477Z,12.40
2022-11-20T21:00:31.884Z,13.10
2022-11-20T21:03:39.781Z,11.90
2022-11-20T21:06:42.682Z,14.60
2022-11-20T21:09:51.221Z,12.60
2022-11-20T21:12:57.630Z,10.30
2022-11-20T21:16:06.380Z,11.00
2022-11-20T21:19:11.345Z,11.30
2022-11-20T21:22:16.762Z,12.90
2022-11-20T21:25:19.026Z,12.20
2022-11-20T21:28:20.678Z,11.90
2022-11-20T21:31:27.968Z,14.80
2022-11-20T21:34:29.587Z,11.90
2022-11-20T21:37:31.120Z,17.70
2022-11-20T21:40:32.610Z,12.40
2022-11-20T21:43:35.806Z,14.20
2022-11-20T21:46:40.199Z,15.30
2022-11-20T21:49:41.609Z,11.10
2022-11-20T21:52:43.061Z,12.40
2022-11-20T21:55:53.073Z,12.00
2022-11-20T21:58:55.293Z,16.20
2022-11-20T22:01:56.765Z,13.00
2022-11-20T22:04:59.139Z,12.70
2022-11-20T22:08:01.282Z,13.10
2022-11-20T22:11:05.777Z,12.20
2022-11-20T22:14:23.047Z,11.90
2022-11-20T22:17:45.071Z,8.90
2022-11-20T22:20:46.478Z,10.20
2022-11-20T22:23:48.812Z,14.70
2022-11-20T22:26:50.298Z,14.20
2022-11-20T22:29:51.732Z,11.80
2022-11-20T22:32:55.881Z,11.60
2022-11-20T22:36:25.422Z,12.90
2022-11-20T22:39:26.862Z,11.10
2022-11-20T22:42:28.247Z,8.20
2022-11-20T22:45:30.154Z,12.10
2022-11-20T22:48:33.250Z,17.70
2022-11-20T22:51:38.142Z,14.90
2022-11-20T22:54:39.599Z,16.80
2022-11-20T22:57:40.992Z,12.90
2022-11-20T23:00:42.394Z,14.00
2022-11-20T23:03:46.214Z,13.50
2022-11-20T23:06:47.763Z,14.30
2022-11-20T23:09:49.139Z,14.50
2022-11-20T23:12:50.682Z,15.60
2022-11-20T23:15:52.434Z,17.20
2022-11-20T23:18:56.158Z,16.70
2022-11-20T23:21:57.596Z,15.50
2022-11-20T23:25:00.858Z,19.90
2022-11-20T23:28:03.199Z,11.70
2022-11-20T23:31:05.333Z,15.80
2022-11-20T23:34:09.994Z,13.60
2022-11-20T23:37:11.454Z,19.10
2022-11-20T23:40:12.900Z,20.80
2022-11-20T23:43:15.582Z,19.40
2022-11-20T23:46:17.235Z,16.80
2022-11-20T23:49:18.699Z,18.50
2022-11-20T23:52:21.583Z,15.10
2022-11-20T23:55:23.039Z,14.40
2022-11-20T23:58:29.155Z,21.80
